createdAt,value
2019-03-20T00:02:18.263Z,17.53
2019-03-20T00:04:50.681Z,14.00
2019-03-20T00:07:22.699Z,19.47
2019-03-20T00:09:54.694Z,12.63
2019-03-20T00:12:26.786Z,10.00
2019-03-20T00:14:58.971Z,12.87
2019-03-20T00:17:31.133Z,10.43
2019-03-20T00:20:06.030Z,11.13
2019-03-20T00:22:39.721Z,12.90
2019-03-20T00:25:13.065Z,13.73
2019-03-20T00:27:45.083Z,8.97
2019-03-20T00:33:56.929Z,12.67
2019-03-20T00:36:28.990Z,10.67
2019-03-20T00:39:01.071Z,16.00
2019-03-20T00:41:33.403Z,13.27
2019-03-20T00:44:05.408Z,23.20
2019-03-20T00:46:37.490Z,17.10
2019-03-20T00:49:09.532Z,13.77
2019-03-20T00:51:41.510Z,13.90
2019-03-20T00:54:13.494Z,15.83
2019-03-20T00:56:45.614Z,11.00
2019-03-20T01:38:56.692Z,13.90
2019-03-20T01:41:37.640Z,7.67
2019-03-20T01:44:02.579Z,14.60
2019-03-20T01:46:35.189Z,10.77
2019-03-20T01:49:07.429Z,10.43
2019-03-20T01:51:39.667Z,13.60
2019-03-20T01:54:11.768Z,14.07
2019-03-20T01:56:44.188Z,9.77
2019-03-20T01:59:17.306Z,13.27
2019-03-20T02:01:52.479Z,12.07
2019-03-20T02:04:24.412Z,8.73
2019-03-20T02:06:56.679Z,10.53
2019-03-20T02:09:28.758Z,11.03
2019-03-20T02:12:00.869Z,17.27
2019-03-20T02:14:32.878Z,10.47
2019-03-20T02:17:04.892Z,14.63
2019-03-20T02:19:36.936Z,19.83
2019-03-20T02:22:09.236Z,17.43
2019-03-20T02:24:41.294Z,23.43
2019-03-20T02:27:13.287Z,22.77
2019-03-20T02:29:45.321Z,12.63
2019-03-20T02:32:17.467Z,9.47
2019-03-20T02:34:49.763Z,14.23
2019-03-20T02:37:23.988Z,16.00
2019-03-20T02:39:56.016Z,14.40
2019-03-20T02:42:28.106Z,11.23
2019-03-20T02:45:00.422Z,12.37
2019-03-20T02:47:32.431Z,18.33
2019-03-20T02:50:06.404Z,14.37
2019-03-20T02:52:38.369Z,16.93
2019-03-20T02:55:12.103Z,10.77
2019-03-20T02:57:44.193Z,19.20
2019-03-20T03:00:24.023Z,12.63
2019-03-20T03:02:56.162Z,12.80
2019-03-20T03:05:28.238Z,12.50
2019-03-20T03:08:00.262Z,17.17
2019-03-20T03:10:32.258Z,12.77
2019-03-20T03:13:04.341Z,16.37
2019-03-20T03:47:24.225Z,12.97
2019-03-20T03:49:56.346Z,10.77
2019-03-20T03:52:28.302Z,12.27
2019-03-20T03:58:39.585Z,11.03
2019-03-20T04:01:33.253Z,16.43
2019-03-20T04:04:34.783Z,11.50
2019-03-20T04:11:11.063Z,15.93
2019-03-20T04:16:51.453Z,13.63
2019-03-20T04:19:23.596Z,10.27
2019-03-20T04:21:55.588Z,11.93
2019-03-20T04:24:27.588Z,10.53
2019-03-20T04:26:59.555Z,9.73
2019-03-20T04:29:31.615Z,11.47
2019-03-20T04:32:03.544Z,9.47
2019-03-20T04:34:35.491Z,9.90
2019-03-20T04:37:17.948Z,14.83
2019-03-20T04:40:04.501Z,11.43
2019-03-20T04:43:00.097Z,20.27
2019-03-20T04:55:12.525Z,12.30
2019-03-20T04:57:50.305Z,14.10
2019-03-20T05:00:34.679Z,12.40
2019-03-20T05:03:17.480Z,11.60
2019-03-20T05:06:01.824Z,11.60
2019-03-20T05:08:36.670Z,13.90
2019-03-20T05:11:10.026Z,8.20
2019-03-20T05:13:51.618Z,10.63
2019-03-20T05:16:28.682Z,12.53
2019-03-20T05:19:17.600Z,11.67
2019-03-20T05:21:55.136Z,9.93
2019-03-20T05:24:27.184Z,9.37
2019-03-20T05:27:00.351Z,14.50
2019-03-20T05:29:32.390Z,9.33
2019-03-20T05:32:04.756Z,10.27
2019-03-20T05:34:37.202Z,12.27
2019-03-20T05:37:10.771Z,14.90
2019-03-20T05:39:43.770Z,18.30
2019-03-20T05:42:15.748Z,15.13
2019-03-20T05:44:47.802Z,8.93
2019-03-20T05:47:19.789Z,12.13
2019-03-20T05:49:54.634Z,11.00
2019-03-20T05:52:26.970Z,13.63
2019-03-20T05:54:58.996Z,11.77
2019-03-20T05:57:31.240Z,12.33
2019-03-20T06:00:05.988Z,10.90
2019-03-20T06:02:37.998Z,15.37
2019-03-20T06:05:11.557Z,13.07
2019-03-20T06:07:45.311Z,14.73
2019-03-20T06:10:20.788Z,14.23
2019-03-20T06:12:52.925Z,13.30
2019-03-20T06:15:25.025Z,12.00
2019-03-20T06:17:57.172Z,9.20
2019-03-20T06:20:29.606Z,13.50
2019-03-20T06:23:01.674Z,9.33
2019-03-20T06:25:33.676Z,9.30
2019-03-20T06:28:05.757Z,7.97
2019-03-20T06:30:37.805Z,10.83
2019-03-20T06:33:10.183Z,12.13
2019-03-20T06:35:42.308Z,13.73
2019-03-20T06:38:16.063Z,12.63
2019-03-20T06:40:48.131Z,25.00
2019-03-20T06:43:20.192Z,11.93
2019-03-20T06:45:52.162Z,15.97
2019-03-20T06:48:24.362Z,12.10
2019-03-20T06:50:56.463Z,13.47
2019-03-20T06:53:28.418Z,10.73
2019-03-20T06:56:00.404Z,10.90
2019-03-20T06:58:32.467Z,12.57
2019-03-20T07:01:11.720Z,12.03
2019-03-20T07:03:54.105Z,13.03
2019-03-20T07:06:51.239Z,12.43
2019-03-20T07:09:37.496Z,13.80
2019-03-20T07:12:09.527Z,12.27
2019-03-20T07:14:49.169Z,13.83
2019-03-20T07:17:22.770Z,16.40
2019-03-20T07:19:57.016Z,22.10
2019-03-20T07:22:37.032Z,20.73
2019-03-20T07:25:09.594Z,17.37
2019-03-20T07:27:44.114Z,17.27
2019-03-20T07:30:16.393Z,22.47
2019-03-20T07:32:49.785Z,16.90
2019-03-20T07:35:21.940Z,17.40
2019-03-20T07:37:56.281Z,18.53
2019-03-20T07:40:27.724Z,22.40
2019-03-20T07:43:08.821Z,21.77
2019-03-20T07:45:35.567Z,17.93
2019-03-20T07:48:21.258Z,15.33
2019-03-20T07:50:44.316Z,19.00
2019-03-20T07:53:16.605Z,16.97
2019-03-20T07:55:48.687Z,18.03
2019-03-20T07:58:20.862Z,23.03
2019-03-20T08:00:52.961Z,19.07
2019-03-20T08:03:25.501Z,23.80
2019-03-20T08:05:58.011Z,19.50
2019-03-20T08:08:30.079Z,20.67
2019-03-20T08:11:02.029Z,19.23
2019-03-20T08:13:35.558Z,18.33
2019-03-20T08:16:11.922Z,17.70
2019-03-20T08:18:44.446Z,27.07
2019-03-20T08:21:17.508Z,22.70
2019-03-20T08:23:50.381Z,25.27
2019-03-20T08:26:22.564Z,23.73
2019-03-20T08:28:54.546Z,20.97
2019-03-20T08:31:26.550Z,23.17
2019-03-20T08:33:58.792Z,21.97
2019-03-20T08:36:32.720Z,27.07
2019-03-20T08:39:06.840Z,22.27
2019-03-20T08:41:39.596Z,31.63
2019-03-20T08:44:12.058Z,24.00
2019-03-20T08:46:44.167Z,31.20
2019-03-20T08:49:16.377Z,23.60
2019-03-20T08:51:48.491Z,23.80
2019-03-20T08:54:21.805Z,27.10
2019-03-20T08:59:55.990Z,22.83
2019-03-20T09:02:28.986Z,33.33
2019-03-20T09:05:01.681Z,29.60
2019-03-20T09:07:33.910Z,31.10
2019-03-20T09:10:20.911Z,23.17
2019-03-20T09:12:55.471Z,21.60
2019-03-20T09:15:28.196Z,24.83
2019-03-20T09:18:00.341Z,29.40
2019-03-20T09:20:32.563Z,24.23
2019-03-20T09:23:05.345Z,26.67
2019-03-20T09:25:37.966Z,27.20
2019-03-20T09:28:11.834Z,23.80
2019-03-20T09:30:44.369Z,24.57
2019-03-20T09:36:18.919Z,27.40
2019-03-20T09:39:27.745Z,29.90
2019-03-20T09:42:06.683Z,31.93
2019-03-20T09:44:40.144Z,24.23
2019-03-20T09:47:12.524Z,23.03
2019-03-20T09:49:46.873Z,24.00
2019-03-20T09:52:28.526Z,33.60
2019-03-20T09:55:01.638Z,22.10
2019-03-20T09:57:34.166Z,26.97
2019-03-20T10:00:25.459Z,23.73
2019-03-20T10:05:58.696Z,25.40
2019-03-20T10:08:30.949Z,27.10
2019-03-20T10:11:04.143Z,22.73
2019-03-20T10:13:37.426Z,29.93
2019-03-20T10:16:17.311Z,27.43
2019-03-20T10:18:52.751Z,25.60
2019-03-20T10:21:24.955Z,24.50
2019-03-20T10:23:57.017Z,27.60
2019-03-20T10:26:29.160Z,27.33
2019-03-20T10:29:01.323Z,33.03
2019-03-20T10:31:33.501Z,28.13
2019-03-20T10:34:05.704Z,27.80
2019-03-20T10:36:38.533Z,25.53
2019-03-20T10:39:16.337Z,30.23
2019-03-20T10:41:48.995Z,30.07
2019-03-20T10:44:21.038Z,33.20
2019-03-20T10:46:53.169Z,34.20
2019-03-20T10:49:25.699Z,36.03
2019-03-20T10:51:58.594Z,24.97
2019-03-20T10:54:30.691Z,33.57
2019-03-20T10:57:02.791Z,30.50
2019-03-20T10:59:36.615Z,29.13
2019-03-20T11:02:08.839Z,32.00
2019-03-20T11:04:40.874Z,31.23
2019-03-20T11:07:12.985Z,27.80
2019-03-20T11:09:45.202Z,33.27
2019-03-20T11:12:17.280Z,30.47
2019-03-20T11:14:49.329Z,31.93
2019-03-20T11:17:21.773Z,32.03
2019-03-20T11:19:56.215Z,33.97
2019-03-20T11:22:27.636Z,31.80
2019-03-20T11:24:59.611Z,31.03
2019-03-20T11:27:33.407Z,34.53
2019-03-20T11:30:13.231Z,30.47
2019-03-20T11:32:45.528Z,38.73
2019-03-20T11:35:17.711Z,30.00
2019-03-20T11:37:49.963Z,41.33
2019-03-20T11:40:41.203Z,34.83
2019-03-20T11:43:13.880Z,40.33
2019-03-20T11:45:46.478Z,34.83
2019-03-20T11:48:18.599Z,31.23
2019-03-20T11:50:50.795Z,35.57
2019-03-20T11:53:23.859Z,34.90
2019-03-20T11:55:56.010Z,35.57
2019-03-20T11:58:28.020Z,35.57
2019-03-20T12:01:00.093Z,34.67
2019-03-20T12:03:32.406Z,36.90
2019-03-20T12:06:04.684Z,38.07
2019-03-20T12:08:36.817Z,36.27
2019-03-20T12:11:09.236Z,37.57
2019-03-20T12:13:41.247Z,40.50
2019-03-20T12:16:13.280Z,40.03
2019-03-20T12:18:45.255Z,36.63
2019-03-20T12:21:17.368Z,37.87
2019-03-20T12:23:49.376Z,35.50
2019-03-20T12:26:21.399Z,39.57
2019-03-20T12:28:56.348Z,40.60
2019-03-20T12:31:28.423Z,37.03
2019-03-20T12:34:02.764Z,40.20
2019-03-20T12:36:38.047Z,38.47
2019-03-20T12:39:11.183Z,34.43
2019-03-20T12:41:46.507Z,36.40
2019-03-20T12:44:19.256Z,41.23
2019-03-20T12:47:26.366Z,39.97
2019-03-20T12:50:04.687Z,43.50
2019-03-20T12:52:44.006Z,35.37
2019-03-20T12:55:20.576Z,39.97
2019-03-20T12:57:57.821Z,41.57
2019-03-20T13:00:42.043Z,34.57
2019-03-20T13:03:20.352Z,34.63
2019-03-20T13:06:20.314Z,38.67
2019-03-20T13:09:18.317Z,40.17
2019-03-20T13:11:57.745Z,39.53
2019-03-20T13:15:01.495Z,43.87
2019-03-20T13:17:33.748Z,37.57
2019-03-20T13:20:12.763Z,35.17
2019-03-20T13:23:22.052Z,39.13
2019-03-20T13:26:02.792Z,35.83
2019-03-20T13:31:43.888Z,36.10
2019-03-20T13:40:38.328Z,38.40
2019-03-20T13:43:13.115Z,40.17
2019-03-20T13:49:10.989Z,38.13
2019-03-20T13:52:04.249Z,41.30
2019-03-20T13:54:39.994Z,41.47
2019-03-20T13:57:12.404Z,38.10
2019-03-20T13:59:45.846Z,40.20
2019-03-20T14:02:17.974Z,40.07
2019-03-20T14:04:50.353Z,37.23
2019-03-20T14:07:22.476Z,39.40
2019-03-20T14:09:54.569Z,35.77
2019-03-20T14:12:26.722Z,39.20
2019-03-20T14:15:01.118Z,39.37
2019-03-20T14:17:37.064Z,43.27
2019-03-20T14:23:38.991Z,35.70
2019-03-20T14:26:20.680Z,36.33
2019-03-20T14:29:10.018Z,38.23
2019-03-20T14:31:54.982Z,38.30
2019-03-20T14:34:39.595Z,43.30
2019-03-20T14:37:17.759Z,38.57
2019-03-20T14:40:07.640Z,39.30
2019-03-20T14:55:48.030Z,47.97
2019-03-20T15:04:45.101Z,45.90
2019-03-20T15:13:39.873Z,44.60
2019-03-20T15:16:16.678Z,47.00
2019-03-20T15:18:55.469Z,52.73
2019-03-20T15:21:31.976Z,50.40
2019-03-20T15:46:21.800Z,47.77
2019-03-20T15:54:56.600Z,50.93
2019-03-20T15:57:38.991Z,52.60
2019-03-20T16:00:37.182Z,51.90
2019-03-20T16:03:27.638Z,62.93
2019-03-20T16:06:00.269Z,61.80
2019-03-20T16:08:35.935Z,56.83
2019-03-20T16:11:09.492Z,57.80
2019-03-20T16:13:44.268Z,58.57
2019-03-20T16:16:16.426Z,65.57
2019-03-20T16:18:48.773Z,56.53
2019-03-20T16:21:20.833Z,62.27
2019-03-20T16:23:53.107Z,50.33
2019-03-20T16:26:25.488Z,65.43
2019-03-20T16:28:59.022Z,64.33
2019-03-20T16:31:31.504Z,55.37
2019-03-20T16:34:03.616Z,64.17
2019-03-20T16:36:38.403Z,59.27
2019-03-20T16:39:10.295Z,59.00
2019-03-20T16:41:43.222Z,58.37
2019-03-20T16:44:15.291Z,55.90
2019-03-20T16:46:47.374Z,62.87
2019-03-20T16:49:19.679Z,62.70
2019-03-20T16:51:51.721Z,59.10
2019-03-20T16:54:23.748Z,60.83
2019-03-20T16:56:56.148Z,63.30
2019-03-20T16:59:28.203Z,65.90
2019-03-20T17:02:01.628Z,62.63
2019-03-20T17:04:33.641Z,66.80
2019-03-20T17:07:05.662Z,65.30
2019-03-20T17:09:37.680Z,71.83
2019-03-20T17:12:12.463Z,71.93
2019-03-20T17:14:44.804Z,62.97
2019-03-20T17:17:16.819Z,62.60
2019-03-20T17:19:49.768Z,70.13
2019-03-20T17:22:21.806Z,74.57
2019-03-20T17:24:53.856Z,70.83
2019-03-20T17:27:26.385Z,66.37
2019-03-20T17:29:58.444Z,61.13
2019-03-20T17:32:30.799Z,59.53
2019-03-20T17:35:03.132Z,63.73
2019-03-20T17:37:35.435Z,59.40
2019-03-20T17:40:14.645Z,59.77
2019-03-20T17:42:46.652Z,65.32
2019-03-20T17:48:30.212Z,56.07
2019-03-20T18:03:23.981Z,58.30
2019-03-20T18:09:25.892Z,61.80
2019-03-20T18:12:09.925Z,56.20
2019-03-20T18:14:42.739Z,62.07
2019-03-20T18:17:15.270Z,60.03
2019-03-20T18:19:49.000Z,61.40
2019-03-20T19:09:07.462Z,64.97
2019-03-20T19:11:48.384Z,52.47
2019-03-20T19:14:21.345Z,59.93
2019-03-20T19:16:53.534Z,70.53
2019-03-20T19:19:25.841Z,64.00
2019-03-20T19:22:00.012Z,58.17
2019-03-20T19:24:32.808Z,57.30
2019-03-20T19:27:06.030Z,54.13
2019-03-20T19:29:41.139Z,50.70
2019-03-20T19:32:20.800Z,47.00
2019-03-20T19:34:53.145Z,53.90
2019-03-20T19:37:25.256Z,51.50
2019-03-20T19:39:57.381Z,51.20
2019-03-20T19:42:32.475Z,51.37
2019-03-20T19:45:12.089Z,53.73
2019-03-20T19:47:49.302Z,50.50
2019-03-20T20:06:27.568Z,49.10
2019-03-20T20:09:00.401Z,48.77
2019-03-20T20:11:33.249Z,49.90
2019-03-20T20:17:14.564Z,49.77
2019-03-20T20:19:46.646Z,48.37
2019-03-20T20:22:18.703Z,50.83
2019-03-20T20:24:53.057Z,49.60
2019-03-20T20:27:25.521Z,43.00
2019-03-20T20:29:57.705Z,50.90
2019-03-20T20:32:30.045Z,46.30
2019-03-20T20:35:07.526Z,51.07
2019-03-20T20:37:40.859Z,50.47
2019-03-20T20:40:22.937Z,55.10
2019-03-20T20:43:18.728Z,52.73
2019-03-20T20:45:51.231Z,56.80
2019-03-20T20:48:24.229Z,59.73
2019-03-20T20:51:03.758Z,54.87
2019-03-20T20:53:37.797Z,62.30
2019-03-20T20:56:11.822Z,52.53
2019-03-20T20:58:45.553Z,53.13
2019-03-20T21:01:51.349Z,56.77
2019-03-20T21:04:29.541Z,58.07
2019-03-20T21:10:36.768Z,53.50
2019-03-20T21:13:11.977Z,57.60
2019-03-20T21:15:49.035Z,60.00
2019-03-20T21:18:49.114Z,61.83
2019-03-20T21:21:22.206Z,53.73
2019-03-20T21:24:24.908Z,59.20
2019-03-20T21:27:17.223Z,57.53
2019-03-20T21:30:29.953Z,54.33
2019-03-20T21:33:28.833Z,52.20
2019-03-20T21:36:34.087Z,54.33
2019-03-20T21:39:08.172Z,49.93
2019-03-20T21:42:26.675Z,57.17
2019-03-20T21:45:24.394Z,55.63
2019-03-20T21:58:25.331Z,51.60
2019-03-20T22:04:45.282Z,54.13
2019-03-20T22:07:19.834Z,55.73
2019-03-20T22:09:56.577Z,48.10
2019-03-20T22:12:50.206Z,53.37
2019-03-20T22:15:46.536Z,51.10
2019-03-20T22:18:57.229Z,58.90
2019-03-20T22:21:57.095Z,54.43
2019-03-20T22:24:59.780Z,50.80
2019-03-20T22:28:03.536Z,56.13
2019-03-20T22:34:26.921Z,60.03
2019-03-20T22:36:59.247Z,64.47
2019-03-20T22:40:16.183Z,54.13
2019-03-20T22:43:29.426Z,48.90
2019-03-20T22:46:27.871Z,55.90
2019-03-20T22:49:16.100Z,44.70
2019-03-20T22:52:28.542Z,51.30
2019-03-20T22:55:40.786Z,44.97
2019-03-20T22:58:46.542Z,47.07
2019-03-20T23:01:42.430Z,37.20
2019-03-20T23:07:42.780Z,44.30
2019-03-20T23:10:38.356Z,39.73
2019-03-20T23:13:20.283Z,38.87
2019-03-20T23:16:00.933Z,39.40
2019-03-20T23:18:35.074Z,38.20
2019-03-20T23:21:10.199Z,42.30
2019-03-20T23:23:45.120Z,47.57
2019-03-20T23:26:17.132Z,56.83
2019-03-20T23:28:49.445Z,53.30
2019-03-20T23:31:21.818Z,50.07
2019-03-20T23:33:54.705Z,49.93
2019-03-20T23:36:30.244Z,48.30
2019-03-20T23:39:09.761Z,52.83
2019-03-20T23:41:46.027Z,45.40
2019-03-20T23:44:20.448Z,44.80
2019-03-20T23:46:53.619Z,47.63
2019-03-20T23:49:28.226Z,39.80
2019-03-20T23:52:01.642Z,40.97
2019-03-20T23:54:45.074Z,42.53
2019-03-20T23:57:17.716Z,36.53
2019-03-20T23:59:52.076Z,40.87
